createdAt,value
2018-01-21T00:00:07.998Z,134.90
2018-01-21T00:01:06.517Z,134.60
2018-01-21T00:02:06.472Z,126.00
2018-01-21T00:03:06.440Z,113.50
2018-01-21T00:04:06.414Z,124.40
2018-01-21T00:05:06.373Z,117.40
2018-01-21T00:06:06.345Z,113.30
2018-01-21T00:07:06.312Z,119.00
2018-01-21T00:08:06.273Z,117.90
2018-01-21T00:09:06.238Z,119.00
2018-01-21T00:10:06.216Z,114.80
2018-01-21T00:11:06.171Z,110.60
2018-01-21T00:12:06.436Z,119.50
2018-01-21T00:13:06.110Z,109.70
2018-01-21T00:14:06.070Z,98.70
2018-01-21T00:15:06.041Z,104.30
2018-01-21T00:16:06.017Z,109.60
2018-01-21T00:17:05.971Z,110.10
2018-01-21T00:18:05.937Z,105.20
2018-01-21T00:19:05.903Z,94.50
2018-01-21T00:20:05.880Z,108.70
2018-01-21T00:21:05.847Z,102.20
2018-01-21T00:22:05.814Z,104.60
2018-01-21T00:23:05.774Z,99.80
2018-01-21T00:24:05.999Z,103.60
2018-01-21T00:25:05.707Z,108.80
2018-01-21T00:26:05.681Z,104.50
2018-01-21T00:27:05.645Z,102.90
2018-01-21T00:28:05.604Z,111.50
2018-01-21T00:29:05.571Z,106.70
2018-01-21T00:30:05.540Z,116.40
2018-01-21T00:31:05.514Z,112.00
2018-01-21T00:32:05.476Z,116.90
2018-01-21T00:33:05.444Z,112.00
2018-01-21T00:34:05.709Z,112.50
2018-01-21T00:35:05.373Z,116.70
2018-01-21T00:36:05.339Z,117.50
2018-01-21T00:37:05.312Z,121.10
2018-01-21T00:38:05.271Z,130.70
2018-01-21T00:39:05.243Z,122.10
2018-01-21T00:40:05.263Z,133.50
2018-01-21T00:41:05.183Z,114.80
2018-01-21T00:42:05.145Z,119.30
2018-01-21T00:43:05.110Z,128.00
2018-01-21T00:44:05.073Z,128.00
2018-01-21T00:45:05.045Z,127.40
2018-01-21T00:46:05.012Z,133.10
2018-01-21T00:47:04.971Z,131.80
2018-01-21T00:48:04.937Z,134.30
2018-01-21T00:49:04.916Z,137.10
2018-01-21T00:50:04.873Z,133.90
2018-01-21T00:51:04.842Z,134.90
2018-01-21T00:52:04.809Z,126.10
2018-01-21T00:53:04.779Z,125.50
2018-01-21T00:54:04.739Z,118.80
2018-01-21T00:55:04.715Z,119.10
2018-01-21T00:56:04.674Z,124.20
2018-01-21T00:57:04.643Z,120.50
2018-01-21T00:58:04.907Z,122.80
2018-01-21T00:59:04.576Z,117.80
2018-01-21T01:00:04.540Z,126.70
2018-01-21T01:01:04.507Z,125.10
2018-01-21T01:02:04.471Z,123.30
2018-01-21T01:03:04.451Z,132.10
2018-01-21T01:04:04.662Z,124.60
2018-01-21T01:05:04.379Z,131.10
2018-01-21T01:06:04.348Z,122.50
2018-01-21T01:07:04.312Z,122.70
2018-01-21T01:08:04.280Z,130.80
2018-01-21T01:09:04.245Z,117.50
2018-01-21T01:10:04.206Z,111.50
2018-01-21T01:11:04.169Z,112.80
2018-01-21T01:12:04.137Z,124.30
2018-01-21T01:13:04.102Z,121.20
2018-01-21T01:14:04.071Z,126.10
2018-01-21T01:15:04.051Z,125.50
2018-01-21T01:16:04.014Z,131.10
2018-01-21T01:17:03.970Z,114.90
2018-01-21T01:18:03.935Z,122.10
2018-01-21T01:19:03.911Z,117.60
2018-01-21T01:20:03.872Z,111.80
2018-01-21T01:21:03.837Z,123.70
2018-01-21T01:22:04.108Z,125.00
2018-01-21T01:23:03.787Z,129.40
2018-01-21T01:24:03.736Z,134.10
2018-01-21T01:25:03.705Z,138.50
2018-01-21T01:26:03.670Z,152.20
2018-01-21T01:27:03.646Z,148.60
2018-01-21T01:28:03.617Z,145.70
2018-01-21T01:29:03.568Z,137.40
2018-01-21T01:30:03.543Z,142.50
2018-01-21T01:31:03.501Z,141.50
2018-01-21T01:32:03.474Z,142.60
2018-01-21T01:33:03.440Z,143.00
2018-01-21T01:34:03.651Z,145.20
2018-01-21T01:35:03.369Z,152.70
2018-01-21T01:36:03.335Z,151.00
2018-01-21T01:37:03.302Z,157.60
2018-01-21T01:38:03.269Z,147.60
2018-01-21T01:39:03.240Z,158.20
2018-01-21T01:40:03.199Z,157.30
2018-01-21T01:41:03.167Z,154.50
2018-01-21T01:42:03.140Z,150.70
2018-01-21T01:43:03.098Z,163.50
2018-01-21T01:44:03.071Z,147.20
2018-01-21T01:45:03.041Z,144.60
2018-01-21T01:46:03.313Z,148.90
2018-01-21T01:47:02.967Z,146.70
2018-01-21T01:48:02.931Z,140.40
2018-01-21T01:49:02.902Z,151.00
2018-01-21T01:50:02.871Z,150.80
2018-01-21T01:51:02.831Z,145.00
2018-01-21T01:52:02.806Z,145.40
2018-01-21T01:53:02.765Z,153.60
2018-01-21T01:54:02.739Z,151.60
2018-01-21T01:55:02.711Z,141.90
2018-01-21T01:56:02.676Z,145.80
2018-01-21T01:57:02.648Z,147.10
2018-01-21T01:58:02.598Z,148.60
2018-01-21T01:59:02.573Z,143.20
2018-01-21T02:00:02.536Z,128.00
2018-01-21T02:01:02.507Z,137.20
2018-01-21T02:02:02.464Z,143.40
2018-01-21T02:03:02.441Z,138.60
2018-01-21T02:04:02.405Z,138.60
2018-01-21T02:05:02.369Z,137.90
2018-01-21T02:06:02.336Z,143.90
2018-01-21T02:07:02.296Z,130.10
2018-01-21T02:08:02.263Z,130.30
2018-01-21T02:09:02.529Z,132.40
2018-01-21T02:10:02.203Z,139.30
2018-01-21T02:11:02.170Z,146.90
2018-01-21T02:12:02.140Z,149.50
2018-01-21T02:13:02.104Z,140.60
2018-01-21T02:14:02.063Z,139.20
2018-01-21T02:15:02.031Z,135.30
2018-01-21T02:16:01.994Z,134.00
2018-01-21T02:17:01.967Z,134.70
2018-01-21T02:18:01.927Z,142.20
2018-01-21T02:19:01.899Z,137.70
2018-01-21T02:20:01.870Z,139.50
2018-01-21T02:21:02.127Z,144.20
2018-01-21T02:22:01.802Z,133.20
2018-01-21T02:23:01.765Z,129.60
2018-01-21T02:24:01.738Z,140.00
2018-01-21T02:25:01.693Z,133.60
2018-01-21T02:26:01.659Z,130.60
2018-01-21T02:27:01.628Z,137.20
2018-01-21T02:28:01.594Z,132.70
2018-01-21T02:29:01.560Z,148.60
2018-01-21T02:30:01.536Z,144.70
2018-01-21T02:31:01.497Z,142.00
2018-01-21T02:32:01.459Z,141.00
2018-01-21T02:33:01.678Z,151.80
2018-01-21T02:34:01.397Z,150.70
2018-01-21T02:35:01.372Z,140.90
2018-01-21T02:36:01.325Z,144.50
2018-01-21T02:37:01.295Z,141.70
2018-01-21T02:38:01.263Z,145.10
2018-01-21T02:39:01.230Z,143.90
2018-01-21T02:40:01.240Z,139.00
2018-01-21T02:41:01.170Z,133.90
2018-01-21T02:42:01.136Z,141.40
2018-01-21T02:43:01.101Z,133.00
2018-01-21T02:44:01.072Z,133.30
2018-01-21T02:45:01.033Z,131.20
2018-01-21T02:46:01.002Z,138.80
2018-01-21T02:47:01.004Z,131.90
2018-01-21T02:48:00.949Z,129.00
2018-01-21T02:49:00.900Z,128.00
2018-01-21T02:50:00.868Z,135.80
2018-01-21T02:51:00.827Z,137.20
2018-01-21T02:52:00.795Z,133.70
2018-01-21T02:53:00.768Z,132.90
2018-01-21T02:54:00.731Z,123.90
2018-01-21T02:55:00.695Z,127.80
2018-01-21T02:56:00.673Z,129.00
2018-01-21T02:57:00.628Z,125.50
2018-01-21T02:58:00.594Z,126.70
2018-01-21T02:59:00.576Z,124.30
2018-01-21T03:00:00.526Z,127.50
2018-01-21T03:01:00.496Z,120.20
2018-01-21T03:02:00.464Z,121.00
2018-01-21T03:03:00.436Z,123.00
2018-01-21T03:04:00.405Z,129.40
2018-01-21T03:05:00.365Z,114.70
2018-01-21T03:06:00.333Z,122.40
2018-01-21T03:07:00.295Z,113.50
2018-01-21T03:08:00.273Z,114.70
2018-01-21T03:09:00.235Z,121.40
2018-01-21T03:10:00.197Z,117.80
2018-01-21T03:11:00.160Z,118.20
2018-01-21T03:12:00.128Z,113.90
2018-01-21T03:13:00.100Z,110.70
2018-01-21T03:14:00.071Z,114.50
2018-01-21T03:15:00.035Z,106.10
2018-01-21T03:15:59.997Z,111.70
2018-01-21T03:16:59.985Z,109.30
2018-01-21T03:17:59.938Z,117.10
2018-01-21T03:18:59.902Z,107.40
2018-01-21T03:20:00.120Z,110.60
2018-01-21T03:20:59.829Z,107.50
2018-01-21T03:21:59.806Z,115.30
2018-01-21T03:22:59.818Z,116.30
2018-01-21T03:23:59.737Z,110.30
2018-01-21T03:24:59.707Z,118.60
2018-01-21T03:26:00.016Z,115.50
2018-01-21T03:26:59.633Z,114.60
2018-01-21T03:27:59.608Z,116.80
2018-01-21T03:28:59.569Z,117.50
2018-01-21T03:29:59.544Z,124.10
2018-01-21T03:30:59.503Z,121.90
2018-01-21T03:31:59.472Z,120.80
2018-01-21T03:32:59.441Z,115.50
2018-01-21T03:33:59.405Z,116.30
2018-01-21T03:34:59.369Z,116.00
2018-01-21T03:35:59.334Z,122.60
2018-01-21T03:36:59.312Z,124.00
2018-01-21T03:37:59.276Z,119.40
2018-01-21T03:38:59.240Z,124.30
2018-01-21T03:39:59.205Z,123.40
2018-01-21T03:40:59.168Z,124.00
2018-01-21T03:41:59.139Z,117.20
2018-01-21T03:42:59.107Z,116.40
2018-01-21T03:43:59.075Z,127.60
2018-01-21T03:44:59.051Z,118.50
2018-01-21T03:45:59.012Z,113.20
2018-01-21T03:46:58.974Z,119.00
2018-01-21T03:47:58.939Z,122.90
2018-01-21T03:48:58.906Z,123.90
2018-01-21T03:49:58.868Z,115.50
2018-01-21T03:50:58.845Z,114.90
2018-01-21T03:51:58.807Z,112.00
2018-01-21T03:52:58.770Z,114.20
2018-01-21T03:53:58.749Z,116.20
2018-01-21T03:54:58.708Z,116.40
2018-01-21T03:55:58.671Z,117.60
2018-01-21T03:56:58.635Z,111.30
2018-01-21T03:57:58.608Z,113.70
2018-01-21T03:58:58.572Z,110.90
2018-01-21T03:59:58.837Z,114.60
2018-01-21T04:00:58.508Z,109.10
2018-01-21T04:01:58.486Z,111.70
2018-01-21T04:02:58.435Z,112.50
2018-01-21T04:03:58.417Z,110.50
2018-01-21T04:04:58.371Z,117.70
2018-01-21T04:05:58.338Z,112.30
2018-01-21T04:06:58.305Z,108.50
2018-01-21T04:07:58.273Z,109.60
2018-01-21T04:08:58.249Z,101.10
2018-01-21T04:09:58.211Z,114.10
2018-01-21T04:10:58.174Z,113.50
2018-01-21T04:11:58.147Z,109.30
2018-01-21T04:12:58.119Z,111.20
2018-01-21T04:13:58.073Z,117.80
2018-01-21T04:14:58.049Z,108.80
2018-01-21T04:15:58.015Z,113.00
2018-01-21T04:16:57.976Z,111.70
2018-01-21T04:17:57.941Z,113.00
2018-01-21T04:18:57.908Z,118.00
2018-01-21T04:19:57.874Z,112.70
2018-01-21T04:20:57.842Z,126.60
2018-01-21T04:21:57.818Z,119.50
2018-01-21T04:22:57.781Z,119.40
2018-01-21T04:23:57.750Z,117.10
2018-01-21T04:24:57.708Z,119.70
2018-01-21T04:25:57.690Z,118.30
2018-01-21T04:26:57.646Z,134.10
2018-01-21T04:27:57.619Z,129.60
2018-01-21T04:28:57.576Z,128.00
2018-01-21T04:29:57.546Z,132.50
2018-01-21T04:30:57.518Z,138.90
2018-01-21T04:31:57.524Z,128.90
2018-01-21T04:32:57.454Z,135.00
2018-01-21T04:33:57.417Z,131.70
2018-01-21T04:34:57.679Z,134.50
2018-01-21T04:35:57.352Z,132.20
2018-01-21T04:36:57.314Z,132.60
2018-01-21T04:37:57.278Z,144.70
2018-01-21T04:38:57.255Z,145.20
2018-01-21T04:39:57.215Z,141.80
2018-01-21T04:40:57.189Z,143.60
2018-01-21T04:41:57.157Z,140.60
2018-01-21T04:42:57.124Z,154.30
2018-01-21T04:43:57.092Z,143.00
2018-01-21T04:44:57.048Z,148.30
2018-01-21T04:45:57.024Z,148.30
2018-01-21T04:46:56.983Z,148.10
2018-01-21T04:47:56.946Z,144.20
2018-01-21T04:48:56.914Z,147.60
2018-01-21T04:49:56.892Z,148.30
2018-01-21T04:50:56.851Z,160.00
2018-01-21T04:51:56.813Z,169.90
2018-01-21T04:52:56.783Z,177.20
2018-01-21T04:53:56.752Z,160.50
2018-01-21T04:54:56.719Z,175.60
2018-01-21T04:55:56.678Z,172.00
2018-01-21T04:56:56.652Z,162.90
2018-01-21T04:57:56.629Z,170.40
2018-01-21T04:58:56.576Z,178.90
2018-01-21T04:59:56.544Z,166.70
2018-01-21T05:00:56.519Z,163.00
2018-01-21T05:01:56.478Z,175.90
2018-01-21T05:02:56.443Z,185.00
2018-01-21T05:03:56.417Z,179.60
2018-01-21T05:04:56.378Z,164.90
2018-01-21T05:05:56.349Z,196.00
2018-01-21T05:06:56.315Z,201.60
2018-01-21T05:07:56.276Z,192.10
2018-01-21T05:08:56.253Z,199.80
2018-01-21T05:09:56.459Z,209.80
2018-01-21T05:10:56.181Z,227.30
2018-01-21T05:11:56.142Z,245.40
2018-01-21T05:12:56.110Z,247.40
2018-01-21T05:13:56.082Z,258.10
2018-01-21T05:14:56.042Z,268.00
2018-01-21T05:15:56.318Z,282.30
2018-01-21T05:16:55.982Z,291.30
2018-01-21T05:17:55.949Z,320.40
2018-01-21T05:18:55.909Z,266.80
2018-01-21T05:19:55.887Z,283.40
2018-01-21T05:20:55.847Z,279.00
2018-01-21T05:21:55.813Z,281.70
2018-01-21T05:22:55.772Z,287.70
2018-01-21T05:23:55.754Z,284.70
2018-01-21T05:24:55.709Z,279.00
2018-01-21T05:25:55.678Z,425.20
2018-01-21T05:26:55.641Z,486.70
2018-01-21T05:27:55.609Z,374.70
2018-01-21T05:28:55.574Z,598.80
2018-01-21T05:29:55.549Z,716.50
2018-01-21T05:30:55.513Z,642.00
2018-01-21T05:31:55.472Z,437.10
2018-01-21T05:32:55.447Z,341.50
2018-01-21T05:33:55.417Z,433.50
2018-01-21T05:34:55.396Z,500.70
2018-01-21T05:35:55.339Z,455.60
2018-01-21T05:36:55.304Z,437.20
2018-01-21T05:37:55.273Z,550.50
2018-01-21T05:38:55.247Z,650.20
2018-01-21T05:39:55.511Z,566.80
2018-01-21T05:40:55.172Z,578.80
2018-01-21T05:41:55.140Z,539.60
2018-01-21T05:42:55.103Z,616.00
2018-01-21T05:43:55.074Z,589.40
2018-01-21T05:44:55.045Z,424.90
2018-01-21T05:45:55.006Z,423.20
2018-01-21T05:46:54.971Z,488.00
2018-01-21T05:47:54.950Z,919.80
2018-01-21T05:48:54.911Z,927.60
2018-01-21T05:49:54.880Z,821.60
2018-01-21T05:50:54.839Z,975.80
2018-01-21T05:51:54.810Z,1057.20
2018-01-21T05:52:54.785Z,1124.70
2018-01-21T05:53:54.742Z,1113.30
2018-01-21T05:54:54.706Z,982.10
2018-01-21T05:55:54.674Z,1036.20
2018-01-21T05:56:54.639Z,877.90
2018-01-21T05:57:54.617Z,602.20
2018-01-21T05:58:54.583Z,656.10
2018-01-21T05:59:54.539Z,877.70
2018-01-21T06:00:54.517Z,811.80
2018-01-21T06:01:54.473Z,878.80
2018-01-21T06:02:54.439Z,1129.60
2018-01-21T06:03:54.407Z,922.00
2018-01-21T06:04:54.380Z,826.80
2018-01-21T06:05:54.348Z,728.90
2018-01-21T06:06:54.309Z,745.80
2018-01-21T06:07:54.277Z,809.90
2018-01-21T06:08:54.242Z,873.90
2018-01-21T06:09:54.211Z,902.00
2018-01-21T06:10:54.176Z,806.60
2018-01-21T06:11:54.148Z,1032.60
2018-01-21T06:12:54.117Z,1193.10
2018-01-21T06:13:54.081Z,1119.50
2018-01-21T06:14:54.106Z,1328.70
2018-01-21T06:15:54.009Z,1149.20
2018-01-21T06:16:53.988Z,1344.10
2018-01-21T06:17:53.948Z,1237.00
2018-01-21T06:18:53.909Z,1221.50
2018-01-21T06:19:53.884Z,1062.50
2018-01-21T06:20:54.197Z,924.20
2018-01-21T06:21:53.810Z,925.10
2018-01-21T06:22:53.809Z,1064.70
2018-01-21T06:23:53.756Z,1257.70
2018-01-21T06:24:53.718Z,969.60
2018-01-21T06:25:53.677Z,1165.00
2018-01-21T06:26:53.652Z,1176.10
2018-01-21T06:27:53.621Z,998.20
2018-01-21T06:28:53.594Z,1145.50
2018-01-21T06:29:53.555Z,1162.40
2018-01-21T06:30:53.518Z,1022.50
2018-01-21T06:31:53.487Z,1082.10
2018-01-21T06:32:53.444Z,894.30
2018-01-21T06:33:53.413Z,1015.00
2018-01-21T06:34:53.387Z,1101.30
2018-01-21T06:35:53.346Z,951.90
2018-01-21T06:36:53.312Z,879.70
2018-01-21T06:37:53.289Z,1020.30
2018-01-21T06:38:53.256Z,1071.80
2018-01-21T06:39:53.224Z,997.30
2018-01-21T06:40:53.184Z,1287.30
2018-01-21T06:41:53.154Z,1197.00
2018-01-21T06:42:53.125Z,1316.30
2018-01-21T06:43:53.380Z,1167.30
2018-01-21T06:44:53.048Z,1109.10
2018-01-21T06:45:53.015Z,1069.10
2018-01-21T06:46:52.980Z,1037.20
2018-01-21T06:47:52.960Z,932.20
2018-01-21T06:48:52.919Z,970.60
2018-01-21T06:49:53.186Z,882.10
2018-01-21T06:50:52.851Z,1083.70
2018-01-21T06:51:52.822Z,1023.20
2018-01-21T06:52:52.781Z,1040.90
2018-01-21T06:53:52.756Z,1099.90
2018-01-21T06:54:52.714Z,1066.70
2018-01-21T06:55:52.682Z,972.60
2018-01-21T06:56:52.651Z,1019.90
2018-01-21T06:57:52.616Z,991.30
2018-01-21T06:58:52.583Z,1020.10
2018-01-21T06:59:52.556Z,934.80
2018-01-21T07:00:52.522Z,1079.20
2018-01-21T07:01:52.499Z,1175.50
2018-01-21T07:02:52.451Z,1095.50
2018-01-21T07:03:52.421Z,1056.40
2018-01-21T07:04:52.392Z,964.00
2018-01-21T07:05:52.355Z,946.00
2018-01-21T07:06:52.329Z,1097.10
2018-01-21T07:07:52.288Z,961.60
2018-01-21T07:08:52.253Z,951.00
2018-01-21T07:09:52.219Z,1019.90
2018-01-21T07:10:52.191Z,778.30
2018-01-21T07:11:52.150Z,832.70
2018-01-21T07:12:52.128Z,857.40
2018-01-21T07:13:52.084Z,869.30
2018-01-21T07:14:52.053Z,1060.30
2018-01-21T07:15:52.032Z,962.90
2018-01-21T07:16:51.994Z,898.40
2018-01-21T07:17:51.952Z,863.30
2018-01-21T07:18:51.917Z,1122.80
2018-01-21T07:19:51.884Z,1062.30
2018-01-21T07:20:51.854Z,860.70
2018-01-21T07:21:51.824Z,904.70
2018-01-21T07:22:51.786Z,942.30
2018-01-21T07:23:51.754Z,811.90
2018-01-21T07:24:51.721Z,892.60
2018-01-21T07:25:51.692Z,850.80
2018-01-21T07:26:51.654Z,1014.30
2018-01-21T07:27:51.623Z,997.10
2018-01-21T07:28:51.590Z,978.10
2018-01-21T07:29:51.549Z,994.30
2018-01-21T07:30:51.523Z,937.70
2018-01-21T07:31:51.488Z,1033.90
2018-01-21T07:32:51.450Z,788.50
2018-01-21T07:33:51.426Z,651.70
2018-01-21T07:34:51.384Z,819.30
2018-01-21T07:35:51.360Z,1235.90
2018-01-21T07:36:51.322Z,827.90
2018-01-21T07:37:51.299Z,823.20
2018-01-21T07:38:51.249Z,663.40
2018-01-21T07:39:51.220Z,736.90
2018-01-21T07:40:51.193Z,579.70
2018-01-21T07:41:51.461Z,630.00
2018-01-21T07:42:51.130Z,919.20
2018-01-21T07:43:51.090Z,760.90
2018-01-21T07:44:51.058Z,931.60
2018-01-21T07:45:51.021Z,813.50
2018-01-21T07:46:50.990Z,813.70
2018-01-21T07:47:50.949Z,807.50
2018-01-21T07:48:50.920Z,772.00
2018-01-21T07:49:50.883Z,916.50
2018-01-21T07:50:50.857Z,1056.40
2018-01-21T07:51:50.826Z,1103.30
2018-01-21T07:52:50.790Z,1092.30
2018-01-21T07:53:51.059Z,1038.50
2018-01-21T07:54:50.727Z,1070.20
2018-01-21T07:55:50.695Z,1170.80
2018-01-21T07:56:50.656Z,1031.10
2018-01-21T07:57:50.626Z,834.50
2018-01-21T07:58:50.590Z,820.90
2018-01-21T07:59:50.555Z,878.00
2018-01-21T08:00:50.518Z,686.90
2018-01-21T08:01:50.491Z,852.60
2018-01-21T08:02:50.456Z,909.90
2018-01-21T08:03:50.430Z,845.80
2018-01-21T08:04:50.385Z,766.70
2018-01-21T08:05:50.350Z,894.00
2018-01-21T08:06:50.320Z,1062.80
2018-01-21T08:07:50.291Z,1128.50
2018-01-21T08:08:50.258Z,1209.20
2018-01-21T08:09:50.219Z,845.40
2018-01-21T08:10:50.184Z,1008.80
2018-01-21T08:11:50.163Z,1125.50
2018-01-21T08:12:50.130Z,1062.00
2018-01-21T08:13:50.086Z,1309.70
2018-01-21T08:14:50.061Z,1041.50
2018-01-21T08:15:50.019Z,1095.10
2018-01-21T08:16:50.004Z,1064.60
2018-01-21T08:17:49.964Z,1072.60
2018-01-21T08:18:49.926Z,1065.50
2018-01-21T08:19:49.886Z,846.90
2018-01-21T08:20:49.859Z,819.70
2018-01-21T08:21:49.820Z,770.90
2018-01-21T08:22:49.791Z,778.80
2018-01-21T08:23:49.756Z,872.10
2018-01-21T08:24:49.733Z,847.30
2018-01-21T08:25:49.698Z,1000.40
2018-01-21T08:26:49.667Z,789.40
2018-01-21T08:27:49.628Z,749.00
2018-01-21T08:28:49.589Z,929.90
2018-01-21T08:29:49.560Z,1049.40
2018-01-21T08:30:49.534Z,865.90
2018-01-21T08:31:49.494Z,1075.20
2018-01-21T08:32:49.458Z,910.00
2018-01-21T08:33:49.424Z,853.60
2018-01-21T08:34:49.393Z,957.00
2018-01-21T08:35:49.365Z,750.40
2018-01-21T08:36:49.328Z,1064.30
2018-01-21T08:37:49.301Z,1045.00
2018-01-21T08:38:49.265Z,874.70
2018-01-21T08:39:49.238Z,1003.20
2018-01-21T08:40:49.199Z,824.60
2018-01-21T08:41:49.171Z,951.30
2018-01-21T08:42:49.131Z,832.50
2018-01-21T08:43:49.095Z,857.50
2018-01-21T08:44:49.068Z,1183.20
2018-01-21T08:45:49.042Z,916.40
2018-01-21T08:46:48.998Z,779.40
2018-01-21T08:47:48.975Z,910.90
2018-01-21T08:48:48.940Z,847.70
2018-01-21T08:49:48.951Z,668.00
2018-01-21T08:50:48.867Z,770.50
2018-01-21T08:51:48.832Z,812.30
2018-01-21T08:52:48.817Z,925.60
2018-01-21T08:53:48.770Z,978.00
2018-01-21T08:54:48.739Z,1071.40
2018-01-21T08:55:48.702Z,1002.50
2018-01-21T08:56:48.676Z,981.00
2018-01-21T08:57:48.659Z,1005.20
2018-01-21T08:58:48.909Z,1237.20
2018-01-21T08:59:48.573Z,1238.40
2018-01-21T09:00:48.548Z,1299.30
2018-01-21T09:01:48.516Z,1169.70
2018-01-21T09:02:48.485Z,1237.70
2018-01-21T09:03:48.454Z,1158.70
2018-01-21T09:04:48.410Z,979.50
2018-01-21T09:05:48.390Z,804.90
2018-01-21T09:06:48.351Z,755.30
2018-01-21T09:07:48.312Z,908.40
2018-01-21T09:08:48.290Z,807.30
2018-01-21T09:09:48.252Z,856.30
2018-01-21T09:10:48.215Z,776.80
2018-01-21T09:11:48.190Z,740.30
2018-01-21T09:12:48.151Z,746.40
2018-01-21T09:13:48.123Z,735.00
2018-01-21T09:14:48.094Z,761.50
2018-01-21T09:15:48.058Z,652.10
2018-01-21T09:16:48.088Z,732.20
2018-01-21T09:17:47.998Z,833.40
2018-01-21T09:18:47.962Z,751.00
2018-01-21T09:19:47.936Z,778.70
2018-01-21T09:20:47.896Z,950.40
2018-01-21T09:21:47.873Z,1073.20
2018-01-21T09:22:47.835Z,946.60
2018-01-21T09:23:47.800Z,759.90
2018-01-21T09:24:47.769Z,754.50
2018-01-21T09:25:47.734Z,575.40
2018-01-21T09:26:47.704Z,848.20
2018-01-21T09:27:47.678Z,897.80
2018-01-21T09:28:47.650Z,866.00
2018-01-21T09:29:47.609Z,750.30
2018-01-21T09:30:47.577Z,911.20
2018-01-21T09:31:47.539Z,906.70
2018-01-21T09:32:47.516Z,1037.50
2018-01-21T09:33:47.778Z,737.00
2018-01-21T09:34:47.442Z,753.10
2018-01-21T09:35:47.420Z,955.00
2018-01-21T09:36:47.387Z,965.60
2018-01-21T09:37:47.348Z,1028.90
2018-01-21T09:38:47.315Z,837.50
2018-01-21T09:39:47.282Z,753.20
2018-01-21T09:40:47.256Z,926.90
2018-01-21T09:41:47.222Z,874.50
2018-01-21T09:42:47.189Z,957.40
2018-01-21T09:43:47.161Z,957.80
2018-01-21T09:44:47.425Z,974.20
2018-01-21T09:45:47.103Z,877.50
2018-01-21T09:46:47.068Z,985.90
2018-01-21T09:47:47.033Z,917.90
2018-01-21T09:48:46.997Z,814.80
2018-01-21T09:49:46.971Z,711.40
2018-01-21T09:50:46.932Z,921.30
2018-01-21T09:51:46.911Z,847.70
2018-01-21T09:52:46.874Z,744.00
2018-01-21T09:53:46.836Z,539.10
2018-01-21T09:54:46.803Z,569.90
2018-01-21T09:55:46.772Z,661.90
2018-01-21T09:56:46.746Z,813.10
2018-01-21T09:57:46.712Z,910.10
2018-01-21T09:58:46.685Z,710.10
2018-01-21T09:59:46.649Z,645.20
2018-01-21T10:00:46.612Z,600.10
2018-01-21T10:01:46.590Z,666.90
2018-01-21T10:02:46.551Z,691.20
2018-01-21T10:03:46.518Z,704.70
2018-01-21T10:04:46.491Z,698.80
2018-01-21T10:05:46.455Z,652.20
2018-01-21T10:06:46.445Z,679.00
2018-01-21T10:07:46.398Z,640.90
2018-01-21T10:08:46.362Z,718.50
2018-01-21T10:09:46.335Z,723.20
2018-01-21T10:10:46.329Z,707.90
2018-01-21T10:11:46.275Z,589.80
2018-01-21T10:12:46.241Z,533.00
2018-01-21T10:13:46.203Z,743.50
2018-01-21T10:14:46.172Z,627.20
2018-01-21T10:15:46.156Z,812.40
2018-01-21T10:16:46.108Z,668.50
2018-01-21T10:17:46.086Z,875.20
2018-01-21T10:18:46.050Z,839.60
2018-01-21T10:19:46.019Z,886.30
2018-01-21T10:20:45.991Z,1109.30
2018-01-21T10:21:45.955Z,1005.10
2018-01-21T10:22:45.933Z,885.80
2018-01-21T10:23:45.902Z,1087.60
2018-01-21T10:24:45.859Z,940.00
2018-01-21T10:25:45.838Z,859.10
2018-01-21T10:26:45.805Z,850.30
2018-01-21T10:27:45.766Z,840.40
2018-01-21T10:28:45.741Z,835.90
2018-01-21T10:29:45.705Z,694.70
2018-01-21T10:30:45.677Z,936.10
2018-01-21T10:31:45.647Z,735.80
2018-01-21T10:32:45.615Z,673.10
2018-01-21T10:33:45.584Z,762.20
2018-01-21T10:34:45.554Z,744.00
2018-01-21T10:35:45.529Z,784.80
2018-01-21T10:36:45.494Z,559.10
2018-01-21T10:37:45.806Z,546.60
2018-01-21T10:38:45.422Z,573.80
2018-01-21T10:39:45.393Z,632.60
2018-01-21T10:40:45.372Z,460.60
2018-01-21T10:41:45.342Z,547.50
2018-01-21T10:42:45.310Z,616.90
2018-01-21T10:43:45.278Z,687.30
2018-01-21T10:44:45.250Z,967.60
2018-01-21T10:45:45.207Z,1179.90
2018-01-21T10:46:45.186Z,919.90
2018-01-21T10:47:45.160Z,1159.00
2018-01-21T10:48:45.114Z,866.20
2018-01-21T10:49:45.097Z,746.20
2018-01-21T10:50:45.059Z,553.40
2018-01-21T10:51:45.020Z,677.20
2018-01-21T10:52:44.994Z,577.80
2018-01-21T10:53:44.958Z,562.90
2018-01-21T10:54:44.934Z,731.10
2018-01-21T10:55:44.903Z,682.50
2018-01-21T10:56:44.868Z,674.10
2018-01-21T10:57:44.843Z,740.70
2018-01-21T10:58:44.809Z,887.60
2018-01-21T10:59:44.774Z,963.70
2018-01-21T11:00:44.751Z,981.00
2018-01-21T11:01:44.715Z,685.30
2018-01-21T11:02:44.681Z,890.00
2018-01-21T11:03:44.660Z,571.40
2018-01-21T11:04:44.628Z,625.30
2018-01-21T11:05:44.589Z,603.10
2018-01-21T11:06:44.572Z,513.10
2018-01-21T11:07:44.533Z,608.70
2018-01-21T11:08:44.501Z,891.70
2018-01-21T11:09:44.472Z,819.70
2018-01-21T11:10:44.448Z,657.20
2018-01-21T11:11:44.416Z,520.00
2018-01-21T11:12:44.375Z,870.10
2018-01-21T11:13:44.344Z,825.70
2018-01-21T11:14:44.319Z,654.60
2018-01-21T11:15:44.288Z,572.20
2018-01-21T11:16:44.251Z,606.50
2018-01-21T11:17:44.225Z,724.30
2018-01-21T11:18:44.198Z,882.00
2018-01-21T11:19:44.162Z,542.70
2018-01-21T11:20:44.129Z,780.40
2018-01-21T11:21:44.104Z,514.80
2018-01-21T11:22:44.073Z,561.60
2018-01-21T11:23:44.044Z,679.30
2018-01-21T11:24:44.018Z,442.90
2018-01-21T11:25:43.978Z,426.40
2018-01-21T11:26:43.952Z,386.70
2018-01-21T11:27:43.917Z,565.50
2018-01-21T11:28:43.895Z,449.00
2018-01-21T11:29:43.908Z,506.80
2018-01-21T11:30:43.836Z,441.50
2018-01-21T11:31:43.802Z,642.40
2018-01-21T11:32:43.774Z,735.50
2018-01-21T11:33:43.734Z,944.20
2018-01-21T11:34:43.706Z,677.10
2018-01-21T11:35:43.676Z,611.10
2018-01-21T11:36:43.645Z,910.70
2018-01-21T11:37:43.625Z,577.80
2018-01-21T11:38:43.594Z,603.80
2018-01-21T11:39:43.555Z,643.10
2018-01-21T11:40:43.527Z,470.80
2018-01-21T11:41:43.494Z,601.90
2018-01-21T11:42:43.470Z,313.20
2018-01-21T11:43:43.444Z,386.00
2018-01-21T11:44:43.404Z,299.80
2018-01-21T11:45:43.381Z,556.70
2018-01-21T11:46:43.359Z,246.90
2018-01-21T11:47:43.322Z,248.80
2018-01-21T11:48:43.286Z,250.60
2018-01-21T11:49:43.258Z,368.20
2018-01-21T11:50:43.231Z,400.40
2018-01-21T11:51:43.205Z,272.50
2018-01-21T11:52:43.175Z,302.20
2018-01-21T11:53:43.134Z,387.10
2018-01-21T11:54:43.100Z,542.00
2018-01-21T11:55:43.080Z,350.60
2018-01-21T11:56:43.048Z,249.40
2018-01-21T11:57:43.023Z,401.00
2018-01-21T11:58:43.295Z,177.20
2018-01-21T11:59:42.958Z,148.30
2018-01-21T12:00:42.929Z,184.00
2018-01-21T12:01:42.894Z,151.50
2018-01-21T12:02:42.861Z,158.80
2018-01-21T12:03:42.840Z,326.90
2018-01-21T12:04:42.802Z,384.00
2018-01-21T12:05:42.770Z,328.50
2018-01-21T12:06:42.745Z,266.70
2018-01-21T12:07:42.722Z,253.10
2018-01-21T12:08:42.690Z,184.20
2018-01-21T12:09:42.659Z,331.90
2018-01-21T12:10:42.625Z,298.50
2018-01-21T12:11:42.592Z,192.70
2018-01-21T12:12:42.564Z,453.20
2018-01-21T12:13:42.540Z,524.00
2018-01-21T12:14:42.509Z,349.90
2018-01-21T12:15:42.482Z,676.90
2018-01-21T12:16:42.444Z,455.00
2018-01-21T12:17:42.420Z,682.30
2018-01-21T12:18:42.390Z,346.90
2018-01-21T12:19:42.355Z,399.20
2018-01-21T12:20:42.332Z,316.40
2018-01-21T12:21:42.301Z,222.30
2018-01-21T12:22:42.265Z,453.20
2018-01-21T12:23:42.238Z,523.50
2018-01-21T12:24:42.204Z,606.20